createdAt,value
2018-12-21T00:02:15.210Z,64.63
2018-12-21T00:04:41.706Z,64.72
2018-12-21T00:07:09.747Z,64.78
2018-12-21T00:09:36.358Z,64.82
2018-12-21T00:12:03.224Z,65.15
2018-12-21T00:14:29.979Z,65.27
2018-12-21T00:16:57.413Z,64.78
2018-12-21T00:19:24.175Z,64.91
2018-12-21T00:21:51.295Z,64.62
2018-12-21T00:24:19.437Z,64.86
2018-12-21T00:26:45.993Z,64.66
2018-12-21T00:29:13.361Z,64.66
2018-12-21T00:31:40.427Z,64.40
2018-12-21T00:34:07.618Z,64.00
2018-12-21T00:36:35.932Z,64.28
2018-12-21T00:39:03.777Z,65.26
2018-12-21T00:41:33.310Z,65.63
2018-12-21T00:43:59.910Z,65.85
2018-12-21T00:46:27.145Z,65.88
2018-12-21T00:48:54.331Z,67.81
2018-12-21T00:51:21.476Z,68.79
2018-12-21T00:53:48.697Z,68.66
2018-12-21T00:56:15.237Z,69.14
2018-12-21T00:58:42.402Z,69.06
2018-12-21T01:01:08.949Z,68.92
2018-12-21T01:03:35.483Z,68.83
2018-12-21T01:06:02.078Z,68.57
2018-12-21T01:08:29.624Z,68.49
2018-12-21T01:11:02.732Z,68.00
2018-12-21T01:13:30.036Z,67.69
2018-12-21T01:15:56.585Z,66.90
2018-12-21T01:18:24.079Z,66.43
2018-12-21T01:20:51.451Z,65.75
2018-12-21T01:23:18.084Z,64.28
2018-12-21T01:25:44.583Z,63.83
2018-12-21T01:28:11.631Z,64.13
2018-12-21T01:33:13.485Z,64.58
2018-12-21T01:35:41.857Z,64.17
2018-12-21T01:38:10.968Z,64.86
2018-12-21T01:40:37.599Z,64.54
2018-12-21T01:43:05.724Z,65.07
2018-12-21T01:45:33.984Z,65.26
2018-12-21T01:48:02.267Z,66.23
2018-12-21T01:50:29.384Z,68.39
2018-12-21T01:52:57.813Z,69.87
2018-12-21T01:55:25.689Z,70.18
2018-12-21T01:57:53.902Z,70.88
2018-12-21T02:00:21.392Z,70.76
2018-12-21T02:02:48.731Z,70.96
2018-12-21T02:05:16.864Z,70.33
2018-12-21T02:07:44.202Z,70.74
2018-12-21T02:10:13.166Z,70.64
2018-12-21T02:12:43.209Z,69.44
2018-12-21T02:15:09.846Z,68.13
2018-12-21T02:17:36.825Z,68.29
2018-12-21T02:20:03.327Z,69.16
2018-12-21T02:22:32.842Z,69.65
2018-12-21T02:25:00.419Z,70.39
2018-12-21T02:27:29.251Z,70.89
2018-12-21T02:29:56.565Z,71.09
2018-12-21T02:32:24.066Z,71.14
2018-12-21T02:34:50.712Z,72.36
2018-12-21T02:37:18.692Z,72.07
2018-12-21T02:39:46.211Z,71.39
2018-12-21T02:42:15.244Z,70.98
2018-12-21T02:44:43.526Z,71.10
2018-12-21T02:49:44.038Z,70.99
2018-12-21T02:52:12.887Z,71.34
2018-12-21T02:54:40.654Z,71.92
2018-12-21T02:57:08.547Z,72.40
2018-12-21T02:59:36.388Z,72.24
2018-12-21T03:02:04.263Z,71.30
2018-12-21T03:04:31.342Z,70.33
2018-12-21T03:06:59.510Z,70.42
2018-12-21T03:09:27.523Z,70.65
2018-12-21T03:11:55.743Z,70.42
2018-12-21T03:14:26.347Z,69.90
2018-12-21T03:16:53.612Z,69.00
2018-12-21T03:19:22.123Z,68.81
2018-12-21T03:21:49.876Z,68.13
2018-12-21T03:24:17.378Z,67.87
2018-12-21T03:26:46.824Z,66.08
2018-12-21T03:29:15.345Z,66.12
2018-12-21T03:31:42.897Z,68.35
2018-12-21T03:34:10.435Z,69.77
2018-12-21T03:36:37.947Z,70.04
2018-12-21T03:39:05.789Z,69.26
2018-12-21T03:41:34.306Z,69.05
2018-12-21T03:44:02.260Z,68.63
2018-12-21T03:46:29.648Z,69.02
2018-12-21T03:48:56.974Z,67.18
2018-12-21T03:51:25.175Z,68.46
2018-12-21T03:53:52.799Z,68.07
2018-12-21T03:56:19.808Z,67.15
2018-12-21T03:58:47.765Z,66.25
2018-12-21T04:01:15.996Z,65.94
2018-12-21T04:03:44.270Z,66.38
2018-12-21T04:06:11.830Z,66.90
2018-12-21T04:08:39.095Z,66.86
2018-12-21T04:11:06.632Z,67.82
2018-12-21T04:13:34.066Z,67.84
2018-12-21T04:16:04.223Z,67.44
2018-12-21T04:23:34.753Z,68.93
2018-12-21T04:26:01.473Z,68.35
2018-12-21T04:28:28.310Z,68.27
2018-12-21T04:30:54.846Z,66.69
2018-12-21T04:33:21.580Z,66.72
2018-12-21T04:35:48.119Z,67.49
2018-12-21T04:38:15.053Z,67.76
2018-12-21T04:40:41.495Z,67.40
2018-12-21T04:43:07.981Z,66.99
2018-12-21T04:45:34.451Z,66.64
2018-12-21T04:48:00.909Z,67.74
2018-12-21T04:50:27.594Z,67.03
2018-12-21T04:52:54.238Z,66.99
2018-12-21T04:55:21.000Z,66.86
2018-12-21T04:57:47.455Z,66.62
2018-12-21T05:00:13.913Z,66.67
2018-12-21T05:02:40.363Z,67.93
2018-12-21T05:05:06.874Z,67.67
2018-12-21T05:07:33.319Z,67.41
2018-12-21T05:09:59.927Z,67.64
2018-12-21T05:12:26.429Z,67.72
2018-12-21T05:14:53.121Z,67.23
2018-12-21T05:17:19.612Z,66.69
2018-12-21T05:19:46.106Z,66.90
2018-12-21T05:22:12.618Z,66.26
2018-12-21T05:24:39.197Z,66.31
2018-12-21T05:27:05.792Z,66.99
2018-12-21T05:29:32.288Z,66.66
2018-12-21T05:31:58.775Z,66.75
2018-12-21T05:34:25.225Z,66.24
2018-12-21T05:36:51.704Z,65.96
2018-12-21T05:39:18.133Z,65.74
2018-12-21T05:41:45.683Z,66.20
2018-12-21T05:44:12.282Z,66.59
2018-12-21T05:46:38.718Z,66.46
2018-12-21T05:49:05.191Z,65.74
2018-12-21T05:51:31.768Z,66.27
2018-12-21T05:53:58.872Z,65.86
2018-12-21T05:56:25.372Z,66.03
2018-12-21T05:58:51.864Z,65.93
2018-12-21T06:01:18.349Z,65.82
2018-12-21T06:03:46.061Z,65.80
2018-12-21T06:06:12.587Z,66.02
2018-12-21T06:08:39.064Z,65.05
2018-12-21T06:11:05.787Z,64.40
2018-12-21T06:13:32.530Z,64.84
2018-12-21T06:15:59.080Z,65.13
2018-12-21T06:18:25.615Z,64.85
2018-12-21T06:20:52.088Z,65.21
2018-12-21T06:23:18.544Z,66.14
2018-12-21T06:25:46.903Z,65.51
2018-12-21T06:28:14.245Z,64.35
2018-12-21T06:30:40.711Z,64.34
2018-12-21T06:33:07.216Z,63.88
2018-12-21T06:35:34.497Z,64.85
2018-12-21T06:38:00.975Z,65.24
2018-12-21T06:40:28.127Z,64.78
2018-12-21T06:42:54.648Z,65.27
2018-12-21T06:45:21.174Z,64.93
2018-12-21T06:47:47.620Z,65.39
2018-12-21T06:50:14.090Z,65.19
2018-12-21T06:52:40.547Z,64.69
2018-12-21T06:55:06.987Z,64.63
2018-12-21T06:57:33.453Z,64.17
2018-12-21T06:59:59.908Z,64.51
2018-12-21T07:02:26.383Z,64.92
2018-12-21T07:04:52.854Z,65.15
2018-12-21T07:07:19.344Z,64.38
2018-12-21T07:09:46.820Z,65.28
2018-12-21T07:12:13.296Z,64.92
2018-12-21T07:14:39.898Z,64.90
2018-12-21T07:17:06.354Z,64.92
2018-12-21T07:19:32.864Z,64.60
2018-12-21T07:21:59.321Z,64.55
2018-12-21T07:26:57.618Z,64.61
2018-12-21T07:29:24.066Z,65.28
2018-12-21T07:31:50.521Z,65.15
2018-12-21T07:34:17.108Z,64.98
2018-12-21T07:36:43.539Z,64.81
2018-12-21T07:39:09.998Z,65.83
2018-12-21T07:41:36.456Z,65.76
2018-12-21T07:44:02.892Z,65.16
2018-12-21T07:46:29.344Z,65.27
2018-12-21T07:48:55.798Z,64.47
2018-12-21T07:51:22.249Z,64.55
2018-12-21T07:53:48.717Z,64.38
2018-12-21T07:56:15.192Z,64.71
2018-12-21T07:58:41.636Z,65.08
2018-12-21T08:01:08.109Z,64.32
2018-12-21T08:03:34.565Z,62.77
2018-12-21T08:06:01.014Z,62.75
2018-12-21T08:08:27.478Z,63.46
2018-12-21T08:10:53.923Z,62.69
2018-12-21T08:13:20.404Z,62.08
2018-12-21T08:15:48.907Z,62.60
2018-12-21T08:18:15.366Z,63.93
2018-12-21T08:20:42.743Z,64.05
2018-12-21T08:23:09.223Z,64.04
2018-12-21T08:25:35.699Z,63.52
2018-12-21T08:28:02.165Z,63.87
2018-12-21T08:30:28.636Z,63.64
2018-12-21T08:32:55.118Z,63.46
2018-12-21T08:35:21.589Z,63.15
2018-12-21T08:37:48.042Z,62.07
2018-12-21T08:40:15.064Z,62.75
2018-12-21T08:42:41.581Z,62.36
2018-12-21T08:45:08.055Z,61.77
2018-12-21T08:47:34.613Z,61.27
2018-12-21T08:50:01.180Z,61.25
2018-12-21T08:52:27.788Z,60.20
2018-12-21T08:54:54.484Z,61.10
2018-12-21T08:57:21.108Z,61.52
2018-12-21T08:59:48.248Z,61.98
2018-12-21T09:02:14.753Z,61.16
2018-12-21T09:04:41.237Z,59.07
2018-12-21T09:07:07.764Z,59.05
2018-12-21T09:09:34.388Z,59.01
2018-12-21T09:12:00.840Z,60.04
2018-12-21T09:14:27.269Z,59.57
2018-12-21T09:16:53.765Z,58.80
2018-12-21T09:19:20.243Z,58.95
2018-12-21T09:21:46.887Z,59.72
2018-12-21T09:24:13.343Z,59.25
2018-12-21T09:26:39.822Z,60.48
2018-12-21T09:29:06.322Z,61.17
2018-12-21T09:31:32.785Z,60.03
2018-12-21T09:33:59.241Z,60.42
2018-12-21T09:36:25.678Z,61.03
2018-12-21T09:38:52.349Z,61.38
2018-12-21T09:41:18.871Z,60.68
2018-12-21T09:43:45.343Z,60.26
2018-12-21T09:46:11.791Z,59.84
2018-12-21T09:48:38.504Z,57.78
2018-12-21T09:51:04.954Z,57.46
2018-12-21T09:53:31.644Z,57.48
2018-12-21T09:55:59.834Z,58.75
2018-12-21T09:58:31.575Z,59.35
2018-12-21T10:00:58.021Z,59.29
2018-12-21T10:03:24.486Z,58.97
2018-12-21T10:05:50.961Z,58.46
2018-12-21T10:08:17.426Z,59.68
2018-12-21T10:10:43.879Z,59.56
2018-12-21T10:13:10.343Z,59.52
2018-12-21T10:15:36.800Z,57.28
2018-12-21T10:18:03.315Z,57.45
2018-12-21T10:20:29.763Z,58.85
2018-12-21T10:22:56.281Z,58.01
2018-12-21T10:25:22.737Z,58.28
2018-12-21T10:27:49.374Z,56.91
2018-12-21T10:30:15.850Z,57.79
2018-12-21T10:32:42.319Z,57.22
2018-12-21T10:35:08.798Z,58.44
2018-12-21T10:37:35.248Z,57.20
2018-12-21T10:40:01.846Z,57.20
2018-12-21T10:42:29.230Z,58.11
2018-12-21T10:44:55.757Z,58.61
2018-12-21T10:47:23.093Z,58.00
2018-12-21T10:49:49.647Z,58.20
2018-12-21T10:52:16.420Z,59.26
2018-12-21T10:54:42.914Z,59.72
2018-12-21T10:57:09.497Z,59.09
2018-12-21T10:59:43.217Z,58.18
2018-12-21T11:02:04.552Z,57.51
2018-12-21T11:04:31.075Z,56.42
2018-12-21T11:06:57.565Z,56.75
2018-12-21T11:09:24.021Z,57.66
2018-12-21T11:11:50.577Z,57.33
2018-12-21T11:14:17.027Z,56.74
2018-12-21T11:16:43.445Z,57.02
2018-12-21T11:19:09.923Z,58.72
2018-12-21T11:21:36.402Z,58.57
2018-12-21T11:24:02.924Z,57.19
2018-12-21T11:26:29.452Z,57.62
2018-12-21T11:28:55.947Z,58.37
2018-12-21T11:31:22.442Z,58.85
2018-12-21T11:33:50.102Z,58.93
2018-12-21T11:36:17.358Z,58.48
2018-12-21T11:38:44.606Z,57.26
2018-12-21T11:41:11.129Z,57.80
2018-12-21T11:43:37.582Z,58.31
2018-12-21T11:46:04.117Z,56.74
2018-12-21T11:48:30.683Z,57.11
2018-12-21T11:50:57.218Z,58.29
2018-12-21T11:53:23.818Z,56.65
2018-12-21T11:55:50.785Z,57.65
2018-12-21T12:00:54.673Z,56.75
2018-12-21T12:03:21.295Z,57.35
2018-12-21T12:05:47.899Z,57.51
2018-12-21T12:10:47.488Z,57.68
2018-12-21T12:13:14.083Z,58.14
2018-12-21T12:15:40.738Z,57.27
2018-12-21T12:18:10.956Z,57.72
2018-12-21T12:20:37.543Z,57.31
2018-12-21T12:23:04.568Z,57.74
2018-12-21T12:25:31.150Z,58.51
2018-12-21T12:27:57.958Z,57.81
2018-12-21T12:30:24.599Z,57.43
2018-12-21T12:32:51.228Z,58.88
2018-12-21T12:35:17.770Z,57.93
2018-12-21T12:37:44.501Z,58.16
2018-12-21T12:40:10.979Z,58.78
2018-12-21T12:42:37.540Z,59.06
2018-12-21T12:45:04.215Z,58.76
2018-12-21T12:47:30.811Z,58.61
2018-12-21T12:49:57.325Z,58.50
2018-12-21T12:52:23.990Z,58.12
2018-12-21T12:54:50.499Z,57.43
2018-12-21T12:57:17.013Z,58.97
2018-12-21T12:59:43.739Z,59.49
2018-12-21T13:02:10.386Z,59.02
2018-12-21T13:04:36.957Z,59.23
2018-12-21T13:07:03.493Z,58.27
2018-12-21T13:09:30.083Z,59.18
2018-12-21T13:11:56.624Z,58.77
2018-12-21T13:14:23.875Z,57.18
2018-12-21T13:16:50.507Z,58.78
2018-12-21T13:19:17.041Z,59.36
2018-12-21T13:21:43.594Z,60.71
2018-12-21T13:24:10.107Z,59.80
2018-12-21T13:26:36.761Z,59.65
2018-12-21T13:29:03.360Z,59.38
2018-12-21T13:31:29.966Z,59.46
2018-12-21T13:33:56.761Z,60.27
2018-12-21T13:36:24.165Z,60.13
2018-12-21T13:38:50.732Z,61.12
2018-12-21T13:41:17.363Z,61.29
2018-12-21T13:43:43.961Z,61.27
2018-12-21T13:46:10.553Z,59.46
2018-12-21T13:48:37.060Z,60.08
2018-12-21T13:51:03.748Z,60.18
2018-12-21T13:53:30.381Z,60.19
2018-12-21T13:55:56.896Z,60.21
2018-12-21T13:58:24.429Z,59.45
2018-12-21T14:00:51.131Z,59.69
2018-12-21T14:03:17.845Z,59.22
2018-12-21T14:05:44.338Z,58.42
2018-12-21T14:08:10.847Z,58.78
2018-12-21T14:10:37.454Z,58.75
2018-12-21T14:13:03.991Z,58.50
2018-12-21T14:15:30.635Z,58.86
2018-12-21T14:17:57.188Z,58.60
2018-12-21T14:20:24.463Z,59.41
2018-12-21T14:22:54.215Z,58.79
2018-12-21T14:25:28.629Z,57.78
2018-12-21T14:27:49.443Z,57.92
2018-12-21T14:30:16.027Z,60.03
2018-12-21T14:32:42.847Z,59.59
2018-12-21T14:35:15.316Z,57.48
2018-12-21T14:37:42.156Z,58.66
2018-12-21T14:40:08.702Z,59.40
2018-12-21T14:42:35.452Z,59.50
2018-12-21T14:45:44.373Z,58.91
2018-12-21T14:48:10.884Z,58.34
2018-12-21T14:50:37.409Z,59.06
2018-12-21T14:53:07.451Z,60.76
2018-12-21T14:55:39.422Z,61.54
2018-12-21T14:58:05.985Z,61.15
2018-12-21T15:00:32.459Z,61.08
2018-12-21T15:03:00.057Z,60.97
2018-12-21T15:05:26.549Z,60.09
2018-12-21T15:07:53.020Z,60.45
2018-12-21T15:10:19.496Z,60.71
2018-12-21T15:12:49.223Z,60.33
2018-12-21T15:15:15.710Z,59.80
2018-12-21T15:17:42.167Z,59.74
2018-12-21T15:20:08.702Z,60.12
2018-12-21T15:22:35.215Z,59.76
2018-12-21T15:25:01.692Z,59.52
2018-12-21T15:27:28.205Z,59.19
2018-12-21T15:29:55.430Z,59.60
2018-12-21T15:32:21.988Z,59.60
2018-12-21T15:34:49.479Z,59.92
2018-12-21T15:37:16.827Z,60.32
2018-12-21T15:39:43.349Z,60.58
2018-12-21T15:42:09.844Z,61.33
2018-12-21T15:44:36.319Z,63.42
2018-12-21T15:47:09.034Z,62.36
2018-12-21T15:49:31.258Z,62.09
2018-12-21T15:51:57.760Z,61.86
2018-12-21T15:54:25.313Z,61.37
2018-12-21T15:56:51.810Z,61.03
2018-12-21T15:59:18.327Z,60.39
2018-12-21T16:01:44.839Z,60.85
2018-12-21T16:04:11.428Z,60.37
2018-12-21T16:06:37.931Z,60.59
2018-12-21T16:09:05.165Z,60.43
2018-12-21T16:11:31.650Z,60.76
2018-12-21T16:14:01.734Z,60.44
2018-12-21T16:16:29.387Z,60.88
2018-12-21T16:18:56.571Z,60.34
2018-12-21T16:21:23.086Z,61.08
2018-12-21T16:23:50.437Z,61.63
2018-12-21T16:26:16.919Z,62.07
2018-12-21T16:28:43.445Z,61.96
2018-12-21T16:31:10.636Z,61.15
2018-12-21T16:36:12.080Z,62.07
2018-12-21T16:38:38.668Z,62.55
2018-12-21T16:41:05.936Z,62.63
2018-12-21T16:43:37.280Z,62.96
2018-12-21T16:46:03.854Z,62.67
2018-12-21T16:48:30.425Z,64.96
2018-12-21T16:50:57.280Z,65.33
2018-12-21T16:53:23.789Z,64.45
2018-12-21T16:55:51.129Z,64.10
2018-12-21T16:58:17.652Z,62.73
2018-12-21T17:00:44.107Z,61.72
2018-12-21T17:03:15.631Z,62.06
2018-12-21T17:05:39.915Z,62.34
2018-12-21T17:08:06.454Z,62.53
2018-12-21T17:10:33.004Z,63.71
2018-12-21T17:13:00.355Z,65.27
2018-12-21T17:15:26.953Z,65.23
2018-12-21T17:17:53.566Z,65.09
2018-12-21T17:20:20.085Z,64.45
2018-12-21T17:22:46.576Z,65.12
2018-12-21T17:25:13.100Z,67.49
2018-12-21T17:27:39.650Z,67.55
2018-12-21T17:30:06.497Z,67.17
2018-12-21T17:32:32.989Z,65.67
2018-12-21T17:34:59.541Z,67.22
2018-12-21T17:37:26.135Z,66.44
2018-12-21T17:39:52.635Z,66.23
2018-12-21T17:42:19.139Z,66.18
2018-12-21T17:44:49.308Z,66.96
2018-12-21T17:47:15.815Z,65.95
2018-12-21T17:49:42.399Z,66.42
2018-12-21T17:52:08.881Z,66.79
2018-12-21T17:54:42.085Z,67.00
2018-12-21T17:57:11.590Z,67.63
2018-12-21T17:59:38.087Z,67.47
2018-12-21T18:02:04.588Z,66.17
2018-12-21T18:07:03.324Z,64.62
2018-12-21T18:09:29.921Z,64.85
2018-12-21T18:11:57.319Z,66.30
2018-12-21T18:14:25.730Z,66.67
2018-12-21T18:16:52.256Z,65.24
2018-12-21T18:19:18.756Z,65.45
2018-12-21T18:21:45.263Z,65.83
2018-12-21T18:24:11.758Z,65.97
2018-12-21T18:26:39.296Z,65.58
2018-12-21T18:29:05.986Z,66.94
2018-12-21T18:31:32.495Z,68.45
2018-12-21T18:33:59.031Z,69.00
2018-12-21T18:36:25.779Z,68.81
2018-12-21T18:38:52.284Z,69.11
2018-12-21T18:41:18.785Z,69.89
2018-12-21T18:43:45.246Z,70.10
2018-12-21T18:46:11.736Z,69.72
2018-12-21T18:48:38.276Z,68.70
2018-12-21T18:51:04.747Z,67.68
2018-12-21T18:53:31.226Z,68.32
2018-12-21T18:55:57.787Z,69.59
2018-12-21T18:58:24.249Z,70.67
2018-12-21T19:00:50.954Z,69.38
2018-12-21T19:03:17.539Z,67.81
2018-12-21T19:05:45.055Z,66.42
2018-12-21T19:08:11.607Z,65.20
2018-12-21T19:10:38.126Z,64.29
2018-12-21T19:13:04.621Z,63.06
2018-12-21T19:15:31.411Z,63.98
2018-12-21T19:18:04.565Z,64.26
2018-12-21T19:20:37.619Z,64.90
2018-12-21T19:23:04.114Z,64.85
2018-12-21T19:25:34.404Z,65.08
2018-12-21T19:28:00.908Z,64.50
2018-12-21T19:30:27.475Z,64.28
2018-12-21T19:32:54.731Z,63.30
2018-12-21T19:37:52.351Z,62.46
2018-12-21T19:40:18.918Z,63.52
2018-12-21T19:42:45.392Z,64.24
2018-12-21T19:45:15.246Z,65.62
2018-12-21T19:47:41.735Z,65.21
2018-12-21T19:50:08.234Z,65.55
2018-12-21T19:52:34.806Z,66.25
2018-12-21T19:55:01.305Z,67.02
2018-12-21T19:57:27.805Z,66.63
2018-12-21T19:59:54.417Z,66.58
2018-12-21T20:02:20.934Z,66.24
2018-12-21T20:04:47.443Z,66.87
2018-12-21T20:07:14.586Z,68.57
2018-12-21T20:09:41.086Z,69.22
2018-12-21T20:12:07.549Z,69.50
2018-12-21T20:14:34.909Z,69.40
2018-12-21T20:17:01.506Z,68.67
2018-12-21T20:19:27.970Z,68.73
2018-12-21T20:21:54.486Z,68.23
2018-12-21T20:24:23.123Z,68.86
2018-12-21T20:26:49.639Z,70.67
2018-12-21T20:29:16.144Z,70.70
2018-12-21T20:31:42.699Z,70.64
2018-12-21T20:34:09.324Z,69.64
2018-12-21T20:36:35.804Z,69.01
2018-12-21T20:39:02.389Z,68.41
2018-12-21T20:41:29.112Z,67.80
2018-12-21T20:43:56.046Z,67.79
2018-12-21T20:46:24.768Z,67.71
2018-12-21T20:48:51.261Z,67.33
2018-12-21T20:51:17.744Z,66.82
2018-12-21T20:53:44.436Z,67.52
2018-12-21T20:56:16.060Z,68.00
2018-12-21T20:58:45.556Z,67.88
2018-12-21T21:01:12.109Z,68.82
2018-12-21T21:03:38.560Z,68.83
2018-12-21T21:06:05.182Z,67.92
2018-12-21T21:08:32.177Z,68.35
2018-12-21T21:10:58.722Z,67.86
2018-12-21T21:13:25.198Z,69.09
2018-12-21T21:15:51.729Z,69.21
2018-12-21T21:18:18.364Z,68.38
2018-12-21T21:20:44.874Z,67.73
2018-12-21T21:23:11.591Z,68.17
2018-12-21T21:25:38.242Z,68.67
2018-12-21T21:28:04.740Z,68.17
2018-12-21T21:30:31.300Z,68.02
2018-12-21T21:32:57.778Z,68.02
2018-12-21T21:35:24.389Z,67.55
2018-12-21T21:37:50.854Z,67.21
2018-12-21T21:40:17.388Z,66.15
2018-12-21T21:42:43.926Z,65.70
2018-12-21T21:45:11.024Z,66.55
2018-12-21T21:47:37.563Z,65.79
2018-12-21T21:50:04.093Z,64.86
2018-12-21T21:52:30.550Z,65.19
2018-12-21T21:54:57.077Z,65.34
2018-12-21T21:57:24.935Z,64.81
2018-12-21T21:59:51.443Z,65.59
2018-12-21T22:02:18.003Z,63.63
2018-12-21T22:04:45.548Z,63.31
2018-12-21T22:07:12.139Z,62.97
2018-12-21T22:09:38.730Z,65.43
2018-12-21T22:12:05.182Z,64.20
2018-12-21T22:14:31.743Z,64.42
2018-12-21T22:16:58.248Z,64.91
2018-12-21T22:19:24.733Z,65.67
2018-12-21T22:21:51.310Z,67.60
2018-12-21T22:24:17.792Z,68.74
2018-12-21T22:26:48.241Z,69.07
2018-12-21T22:29:14.709Z,68.62
2018-12-21T22:31:41.397Z,67.33
2018-12-21T22:34:07.959Z,66.17
2018-12-21T22:36:34.435Z,65.38
2018-12-21T22:39:01.053Z,64.98
2018-12-21T22:41:27.836Z,64.98
2018-12-21T22:43:54.353Z,66.28
2018-12-21T22:46:20.857Z,67.24
2018-12-21T22:48:47.973Z,69.55
2018-12-21T22:51:14.475Z,69.30
2018-12-21T22:53:41.513Z,69.13
2018-12-21T22:56:08.221Z,69.40
2018-12-21T22:58:34.874Z,69.10
2018-12-21T23:01:01.540Z,67.98
2018-12-21T23:03:28.015Z,68.25
2018-12-21T23:05:54.580Z,68.40
2018-12-21T23:08:21.172Z,68.12
2018-12-21T23:10:47.688Z,66.99
2018-12-21T23:13:14.152Z,66.24
2018-12-21T23:15:41.741Z,67.42
2018-12-21T23:18:08.267Z,67.20
2018-12-21T23:20:34.724Z,68.21
2018-12-21T23:23:01.285Z,69.74
2018-12-21T23:25:27.845Z,68.93
2018-12-21T23:27:54.377Z,67.87
2018-12-21T23:30:20.832Z,69.47
2018-12-21T23:32:47.385Z,69.73
2018-12-21T23:35:13.867Z,70.03
2018-12-21T23:37:40.880Z,70.50
2018-12-21T23:40:07.347Z,70.63
2018-12-21T23:42:33.851Z,69.11
2018-12-21T23:45:00.660Z,69.18
2018-12-21T23:47:30.899Z,69.41
2018-12-21T23:49:57.556Z,68.74
2018-12-21T23:52:24.308Z,68.10
2018-12-21T23:54:50.851Z,67.02
2018-12-21T23:57:17.384Z,67.44
2018-12-21T23:59:44.286Z,67.39
